Gustave, South Dakota
Current Conditions -  °F | °C
As of 8:26 PM on Thursday 25 Dec 2014 (Local Time) from KBHK Reporting Station
Overcast Overcast  
Wind Chill:   Ceiling: 1300
Heat Index: 20°   Visibility: 10mi
Dew Point: 16°   Wind: 10mph
Humidity: 85%   Direction: 340°NNW
Pressure: 30.01"   Gusts: NA
Location:  45.6592°N, 103.944°W
Report Text: KBHK 260326Z AUTO 34009KT 10SM OVC013 M07/M09 A3001 RMK AO2 T10671089
Loading
Personal Weather Stations






























Interactive Weather Map New forecast layout! Learn more

10-Day Weather Forecast

Advertisements
Track Severe Weather on mobile